Time;durP1;ratioP1;P1;durP2;ratioP2;P2;SDS_P1;SDS_P2;PMS_P1;PMS_P2;Temp;Humidity;BMP_temperature;BMP_pressure;BME280_temperature;BME280_humidity;BME280_pressure;Samples;Min_cycle;Max_cycle;Signal;HPM_P1;HPM_P2
2021/07/17 00:04:13;;;;;;;9.00;5.70;;;;;;;;;;10258395;28;20543;-74
2021/07/17 00:09:23;;;;;;;9.33;5.90;;;;;;;;;;10231319;28;21044;-74
2021/07/17 00:14:27;;;;;;;8.80;5.33;;;;;;;;;;10250839;28;20260;-73
2021/07/17 00:19:31;;;;;;;7.97;5.20;;;;;;;;;;10252695;28;20715;-73
2021/07/17 00:24:33;;;;;;;10.33;6.20;;;;;;;;;;10250965;28;20664;-75
2021/07/17 00:29:36;;;;;;;8.70;5.70;;;;;;;;;;10245182;28;20694;-74
2021/07/17 00:34:40;;;;;;;9.63;6.13;;;;;;;;;;10248971;28;20238;-74
2021/07/17 00:39:42;;;;;;;8.67;5.37;;;;;;;;;;10255817;28;20223;-74
2021/07/17 00:44:45;;;;;;;8.60;5.77;;;;;;;;;;10255112;28;20626;-75
2021/07/17 00:49:49;;;;;;;8.13;5.37;;;;;;;;;;10246206;28;20207;-73
2021/07/17 00:54:52;;;;;;;9.17;5.90;;;;;;;;;;10260204;28;20276;-74
2021/07/17 00:59:56;;;;;;;9.70;5.87;;;;;;;;;;10253317;28;20279;-74
2021/07/17 01:05:00;;;;;;;10.10;5.97;;;;;;;;;;10243895;28;20268;-75
2021/07/17 01:10:04;;;;;;;9.40;6.20;;;;;;;;;;10245640;28;20677;-74
2021/07/17 01:15:07;;;;;;;9.83;5.80;;;;;;;;;;10249825;28;20216;-74
2021/07/17 01:20:12;;;;;;;9.17;5.43;;;;;;;;;;10250441;28;20269;-73
2021/07/17 01:25:18;;;;;;;9.03;5.50;;;;;;;;;;10239696;28;20227;-74
2021/07/17 01:30:23;;;;;;;9.20;5.40;;;;;;;;;;10241835;28;20284;-74
2021/07/17 01:35:26;;;;;;;8.73;5.60;;;;;;;;;;10263509;28;20208;-74
2021/07/17 01:40:30;;;;;;;9.23;5.63;;;;;;;;;;10239217;28;20223;-73
2021/07/17 01:45:35;;;;;;;8.77;5.50;;;;;;;;;;10249534;28;20212;-73
2021/07/17 01:50:38;;;;;;;8.90;5.90;;;;;;;;;;10253620;28;20791;-75
2021/07/17 01:55:42;;;;;;;8.80;5.37;;;;;;;;;;10245682;28;20274;-74
2021/07/17 02:00:45;;;;;;;8.97;6.20;;;;;;;;;;10258799;28;20213;-74
2021/07/17 02:05:47;;;;;;;9.57;6.27;;;;;;;;;;10243344;28;20212;-74
2021/07/17 02:10:51;;;;;;;9.33;6.13;;;;;;;;;;10248052;28;20188;-74
2021/07/17 02:15:54;;;;;;;10.53;6.20;;;;;;;;;;10242418;28;20742;-74
2021/07/17 02:20:57;;;;;;;9.87;6.23;;;;;;;;;;10248245;28;20607;-75
2021/07/17 02:26:01;;;;;;;8.37;6.03;;;;;;;;;;10238280;28;20232;-74
2021/07/17 02:31:04;;;;;;;10.17;6.23;;;;;;;;;;10247720;28;20584;-75
2021/07/17 02:36:06;;;;;;;9.87;6.37;;;;;;;;;;10239195;28;20192;-74
2021/07/17 02:41:10;;;;;;;10.03;6.67;;;;;;;;;;10244218;28;20655;-75
2021/07/17 02:46:13;;;;;;;9.37;6.43;;;;;;;;;;10242344;28;20209;-75
2021/07/17 02:51:15;;;;;;;8.77;6.10;;;;;;;;;;10242407;28;20217;-75
2021/07/17 02:56:19;;;;;;;10.13;6.37;;;;;;;;;;10238397;28;20537;-75
2021/07/17 03:01:22;;;;;;;11.17;6.73;;;;;;;;;;10242756;28;20220;-75
2021/07/17 03:06:25;;;;;;;9.73;6.43;;;;;;;;;;10238734;28;20224;-75
2021/07/17 03:11:28;;;;;;;8.83;6.03;;;;;;;;;;10225082;28;20283;-74
2021/07/17 03:16:32;;;;;;;10.50;7.03;;;;;;;;;;10220026;28;20248;-74
2021/07/17 03:21:34;;;;;;;10.80;7.23;;;;;;;;;;10234022;28;20212;-74
2021/07/17 03:26:38;;;;;;;11.80;7.30;;;;;;;;;;10236649;28;20572;-75
2021/07/17 03:31:41;;;;;;;11.43;8.20;;;;;;;;;;10240725;28;20391;-74
2021/07/17 03:36:44;;;;;;;11.23;8.30;;;;;;;;;;10245920;28;20199;-75
2021/07/17 03:41:47;;;;;;;10.30;6.97;;;;;;;;;;10239571;28;20216;-75
2021/07/17 03:46:50;;;;;;;10.60;7.13;;;;;;;;;;10227621;28;20303;-73
2021/07/17 03:51:52;;;;;;;9.83;6.77;;;;;;;;;;10252952;28;20749;-73
2021/07/17 03:56:57;;;;;;;10.37;7.07;;;;;;;;;;10245501;28;20193;-75
2021/07/17 04:02:00;;;;;;;9.00;6.63;;;;;;;;;;10244080;28;20296;-74
2021/07/17 04:07:04;;;;;;;10.67;7.03;;;;;;;;;;10254064;28;20255;-74
2021/07/17 04:12:08;;;;;;;10.60;7.30;;;;;;;;;;10254015;28;20223;-75
2021/07/17 04:17:31;;;;;;;10.67;7.07;;;;;;;;;;10251959;28;20203;-75
2021/07/17 04:22:54;;;;;;;10.97;7.27;;;;;;;;;;10253519;28;20311;-74
2021/07/17 04:27:58;;;;;;;10.23;7.13;;;;;;;;;;10256020;28;20556;-75
2021/07/17 04:33:00;;;;;;;12.57;8.20;;;;;;;;;;10240599;28;20303;-75
2021/07/17 04:38:03;;;;;;;12.87;8.57;;;;;;;;;;10234187;28;20216;-74
2021/07/17 04:43:07;;;;;;;13.40;9.47;;;;;;;;;;10249872;28;20247;-74
2021/07/17 04:48:10;;;;;;;14.40;10.03;;;;;;;;;;10254947;28;20244;-73
2021/07/17 04:53:12;;;;;;;14.37;10.47;;;;;;;;;;10255656;28;20223;-75
2021/07/17 04:58:16;;;;;;;15.53;10.90;;;;;;;;;;10238149;28;20184;-75
2021/07/17 05:03:19;;;;;;;17.37;10.77;;;;;;;;;;10256310;28;20208;-74
2021/07/17 05:08:21;;;;;;;15.63;11.33;;;;;;;;;;10254272;28;20212;-75
2021/07/17 05:13:25;;;;;;;18.90;12.23;;;;;;;;;;10230170;28;20313;-73
2021/07/17 05:18:28;;;;;;;20.53;14.00;;;;;;;;;;10241612;28;20192;-75
2021/07/17 05:23:31;;;;;;;22.47;14.30;;;;;;;;;;10245286;28;20764;-75
2021/07/17 05:28:34;;;;;;;22.70;14.53;;;;;;;;;;10241113;28;20240;-75
2021/07/17 05:33:37;;;;;;;23.33;15.30;;;;;;;;;;10240268;28;20222;-75
2021/07/17 05:38:39;;;;;;;23.77;16.20;;;;;;;;;;10248139;28;20228;-75
2021/07/17 05:43:43;;;;;;;24.50;17.10;;;;;;;;;;10260334;28;20295;-73
2021/07/17 05:48:46;;;;;;;28.90;18.60;;;;;;;;;;10242661;28;20216;-74
2021/07/17 05:53:48;;;;;;;27.60;18.23;;;;;;;;;;10248503;28;20216;-75
2021/07/17 05:58:52;;;;;;;25.47;17.97;;;;;;;;;;10246387;28;20218;-74
2021/07/17 06:03:55;;;;;;;27.97;18.30;;;;;;;;;;10250353;28;20255;-75
2021/07/17 06:08:57;;;;;;;28.93;18.10;;;;;;;;;;10243843;28;20231;-75
2021/07/17 06:14:01;;;;;;;26.97;18.33;;;;;;;;;;10248338;28;20240;-74
2021/07/17 06:19:04;;;;;;;26.90;17.63;;;;;;;;;;10250091;28;20289;-74
2021/07/17 06:24:06;;;;;;;29.23;18.60;;;;;;;;;;10247807;28;20223;-74
2021/07/17 06:29:10;;;;;;;28.67;19.00;;;;;;;;;;10244039;28;20224;-73
2021/07/17 06:34:14;;;;;;;28.17;19.37;;;;;;;;;;10251126;28;20243;-74
2021/07/17 06:39:16;;;;;;;26.87;18.33;;;;;;;;;;10254463;28;20189;-73
2021/07/17 06:44:20;;;;;;;26.60;18.00;;;;;;;;;;10251509;28;20223;-74
2021/07/17 06:49:23;;;;;;;32.07;20.57;;;;;;;;;;10252497;28;20198;-73
2021/07/17 06:54:26;;;;;;;29.50;19.67;;;;;;;;;;10239349;28;20255;-74
2021/07/17 06:59:30;;;;;;;30.10;19.60;;;;;;;;;;10240841;28;20215;-74
2021/07/17 07:04:32;;;;;;;29.00;19.77;;;;;;;;;;10234149;28;20632;-74
2021/07/17 07:09:35;;;;;;;28.67;18.97;;;;;;;;;;10230766;28;20201;-74
2021/07/17 07:14:39;;;;;;;30.70;20.47;;;;;;;;;;10234056;28;20220;-75
2021/07/17 07:19:42;;;;;;;30.13;18.90;;;;;;;;;;10237902;28;20437;-75
2021/07/17 07:24:44;;;;;;;31.73;19.43;;;;;;;;;;10221254;28;20311;-75
2021/07/17 07:29:48;;;;;;;31.33;20.10;;;;;;;;;;10251787;28;20199;-75
2021/07/17 07:34:51;;;;;;;27.40;19.10;;;;;;;;;;10232129;28;20216;-75
2021/07/17 07:39:54;;;;;;;30.10;18.63;;;;;;;;;;10229458;28;20200;-74
2021/07/17 07:44:58;;;;;;;30.17;18.50;;;;;;;;;;10248451;28;20377;-74
2021/07/17 07:50:01;;;;;;;26.33;17.90;;;;;;;;;;10240044;28;20645;-73
2021/07/17 07:55:04;;;;;;;29.43;18.00;;;;;;;;;;10252530;28;20247;-73
2021/07/17 08:00:09;;;;;;;27.43;16.73;;;;;;;;;;10250518;28;20202;-73
2021/07/17 08:05:28;;;;;;;27.17;17.13;;;;;;;;;;10244042;28;20215;-75
2021/07/17 08:10:31;;;;;;;24.40;16.00;;;;;;;;;;10244057;28;20852;-74
2021/07/17 08:15:35;;;;;;;23.70;16.73;;;;;;;;;;10256420;28;20250;-75
2021/07/17 08:20:39;;;;;;;26.27;16.30;;;;;;;;;;10260606;28;20211;-75
2021/07/17 08:25:42;;;;;;;25.53;17.13;;;;;;;;;;10238950;28;20577;-76
2021/07/17 08:30:46;;;;;;;24.50;16.20;;;;;;;;;;10248109;28;20955;-75
2021/07/17 08:35:49;;;;;;;27.43;17.13;;;;;;;;;;10249421;28;20561;-74
2021/07/17 08:40:52;;;;;;;28.07;17.67;;;;;;;;;;10247498;28;20192;-74
2021/07/17 08:45:56;;;;;;;25.03;16.70;;;;;;;;;;10245452;28;20655;-74
2021/07/17 08:50:59;;;;;;;25.07;17.00;;;;;;;;;;10249525;28;20295;-73
2021/07/17 08:56:02;;;;;;;22.17;16.30;;;;;;;;;;10255576;28;20188;-73
2021/07/17 09:01:06;;;;;;;21.97;15.27;;;;;;;;;;10253463;28;20718;-74
2021/07/17 09:06:09;;;;;;;23.23;16.10;;;;;;;;;;10251947;28;20597;-73
2021/07/17 09:11:11;;;;;;;20.92;14.80;;;;;;;;;;10252312;28;20223;-72
2021/07/17 09:16:18;;;;;;;23.13;15.57;;;;;;;;;;10264342;28;20422;-71
2021/07/17 09:21:23;;;;;;;23.55;16.63;;;;;;;;;;10260452;28;20222;-72
2021/07/17 09:26:27;;;;;;;22.25;14.90;;;;;;;;;;10264789;28;20724;-73
2021/07/17 09:31:32;;;;;;;20.15;13.55;;;;;;;;;;10255204;28;20220;-71
2021/07/17 09:36:34;;;;;;;19.77;13.13;;;;;;;;;;10266075;28;20198;-73
2021/07/17 09:41:38;;;;;;;16.08;11.57;;;;;;;;;;10249817;28;20275;-74
2021/07/17 09:46:44;;;;;;;17.63;12.18;;;;;;;;;;10253077;28;20212;-74
2021/07/17 09:51:47;;;;;;;16.35;12.05;;;;;;;;;;10246470;28;20215;-73
2021/07/17 09:57:00;;;;;;;16.67;11.80;;;;;;;;;;10254674;28;20565;-73
2021/07/17 10:02:04;;;;;;;16.88;10.93;;;;;;;;;;10263118;28;20212;-73
2021/07/17 10:07:08;;;;;;;15.38;10.48;;;;;;;;;;10257348;28;20215;-73
2021/07/17 10:12:11;;;;;;;17.25;11.63;;;;;;;;;;10257177;28;20557;-71
2021/07/17 10:17:15;;;;;;;17.58;12.07;;;;;;;;;;10254650;28;20594;-73
2021/07/17 10:22:18;;;;;;;18.80;13.32;;;;;;;;;;10245261;28;20213;-72
2021/07/17 10:27:24;;;;;;;17.60;11.70;;;;;;;;;;10231165;28;20231;-74
2021/07/17 10:32:30;;;;;;;19.95;12.68;;;;;;;;;;10234733;28;20220;-73
2021/07/17 10:37:34;;;;;;;18.25;12.27;;;;;;;;;;10233665;28;20207;-71
2021/07/17 10:42:37;;;;;;;18.73;12.88;;;;;;;;;;10229679;28;20315;-73
2021/07/17 10:47:42;;;;;;;16.70;11.93;;;;;;;;;;10241023;28;20696;-76
2021/07/17 10:52:45;;;;;;;18.88;12.43;;;;;;;;;;10252539;28;20758;-75
2021/07/17 10:57:48;;;;;;;19.08;12.63;;;;;;;;;;10234831;28;20742;-72
2021/07/17 11:03:05;;;;;;;19.83;13.65;;;;;;;;;;10247327;28;20228;-72
2021/07/17 11:08:28;;;;;;;19.63;13.45;;;;;;;;;;10239670;28;20297;-70
2021/07/17 11:13:33;;;;;;;20.40;13.75;;;;;;;;;;10246162;28;20228;-72
2021/07/17 11:18:37;;;;;;;27.53;17.80;;;;;;;;;;10235343;28;20215;-72
2021/07/17 11:23:45;;;;;;;23.33;14.75;;;;;;;;;;10247666;28;20219;-74
2021/07/17 11:28:54;;;;;;;21.90;14.53;;;;;;;;;;10256080;28;20279;-73
2021/07/17 11:34:11;;;;;;;19.95;12.77;;;;;;;;;;10241815;28;20216;-72
2021/07/17 11:39:16;;;;;;;19.00;11.77;;;;;;;;;;10246711;28;20227;-73
2021/07/17 11:44:18;;;;;;;19.05;13.23;;;;;;;;;;10247449;28;20642;-73
2021/07/17 11:49:21;;;;;;;20.25;13.35;;;;;;;;;;10240867;28;20406;-71
2021/07/17 11:54:25;;;;;;;19.60;13.27;;;;;;;;;;10239898;28;20286;-72
2021/07/17 11:59:28;;;;;;;20.77;14.25;;;;;;;;;;10221411;28;20641;-73
2021/07/17 12:04:31;;;;;;;21.27;12.30;;;;;;;;;;10219681;28;20228;-72
2021/07/17 12:09:36;;;;;;;22.00;13.20;;;;;;;;;;10229236;28;20217;-71
2021/07/17 12:14:39;;;;;;;18.02;12.20;;;;;;;;;;10218067;28;20407;-73
2021/07/17 12:19:42;;;;;;;21.23;13.07;;;;;;;;;;10226908;28;23114;-72
2021/07/17 12:24:46;;;;;;;18.83;13.07;;;;;;;;;;10234889;28;20236;-72
2021/07/17 12:29:50;;;;;;;16.75;11.40;;;;;;;;;;10223580;28;20307;-73
2021/07/17 12:34:56;;;;;;;15.00;10.80;;;;;;;;;;10234933;28;20212;-72
2021/07/17 12:40:07;;;;;;;18.20;11.77;;;;;;;;;;10232924;28;20193;-69
2021/07/17 12:45:15;;;;;;;16.42;11.05;;;;;;;;;;10247978;28;20326;-73
2021/07/17 12:50:21;;;;;;;14.57;10.55;;;;;;;;;;10227966;28;20295;-73
2021/07/17 12:55:25;;;;;;;17.42;11.48;;;;;;;;;;10233754;28;20244;-72
2021/07/17 13:00:28;;;;;;;15.90;10.38;;;;;;;;;;10235945;28;20573;-73
2021/07/17 13:05:43;;;;;;;16.08;10.25;;;;;;;;;;10228150;28;20267;-73
2021/07/17 13:10:47;;;;;;;14.68;9.98;;;;;;;;;;10231794;28;20208;-71
2021/07/17 13:15:55;;;;;;;13.95;9.32;;;;;;;;;;10239034;28;20206;-72
2021/07/17 13:20:59;;;;;;;14.07;9.60;;;;;;;;;;10239709;28;20196;-73
2021/07/17 13:26:16;;;;;;;12.80;9.00;;;;;;;;;;10232730;28;20212;-72
2021/07/17 13:31:20;;;;;;;13.15;8.75;;;;;;;;;;10223619;28;20286;-73
2021/07/17 13:36:23;;;;;;;12.55;7.95;;;;;;;;;;10231257;28;20677;-72
2021/07/17 13:41:27;;;;;;;14.35;8.68;;;;;;;;;;10230202;28;20250;-73
2021/07/17 13:46:29;;;;;;;14.18;9.02;;;;;;;;;;10216172;28;20196;-73
2021/07/17 13:51:32;;;;;;;12.85;8.82;;;;;;;;;;10226735;28;20671;-72
2021/07/17 13:56:37;;;;;;;13.02;8.88;;;;;;;;;;10228575;28;20225;-71
2021/07/17 14:01:40;;;;;;;11.35;7.75;;;;;;;;;;10218724;28;20393;-72
2021/07/17 14:06:44;;;;;;;11.90;8.35;;;;;;;;;;10221691;28;20207;-71
2021/07/17 14:11:48;;;;;;;11.25;8.57;;;;;;;;;;10220781;28;20243;-71
2021/07/17 14:16:50;;;;;;;12.00;8.32;;;;;;;;;;10233156;28;20196;-71
2021/07/17 14:21:57;;;;;;;12.15;8.18;;;;;;;;;;10229505;28;20580;-71
2021/07/17 14:27:01;;;;;;;12.43;8.35;;;;;;;;;;10239278;28;20554;-73
2021/07/17 14:32:05;;;;;;;14.18;8.82;;;;;;;;;;10244753;28;20304;-72
2021/07/17 14:37:08;;;;;;;12.75;8.68;;;;;;;;;;10254688;28;20766;-72
2021/07/17 14:42:11;;;;;;;14.55;8.73;;;;;;;;;;10249881;28;20304;-76
2021/07/17 14:47:14;;;;;;;13.25;9.30;;;;;;;;;;10245633;28;20212;-72
2021/07/17 14:52:17;;;;;;;15.20;9.60;;;;;;;;;;10241811;28;20291;-72
2021/07/17 14:57:21;;;;;;;15.38;9.80;;;;;;;;;;10235846;28;20678;-71
2021/07/17 15:02:23;;;;;;;13.23;9.57;;;;;;;;;;10241826;28;20216;-70
2021/07/17 15:07:26;;;;;;;13.63;9.35;;;;;;;;;;10242436;28;20303;-71
2021/07/17 15:12:30;;;;;;;16.02;10.75;;;;;;;;;;10248163;28;20239;-72
2021/07/17 15:17:32;;;;;;;14.65;10.18;;;;;;;;;;10262603;28;20330;-71
2021/07/17 15:22:35;;;;;;;15.30;9.70;;;;;;;;;;10253883;28;20711;-72
2021/07/17 15:27:39;;;;;;;14.00;9.35;;;;;;;;;;10242900;28;20231;-70
2021/07/17 15:32:41;;;;;;;14.18;9.40;;;;;;;;;;10238595;28;20291;-72
2021/07/17 15:37:44;;;;;;;14.68;9.68;;;;;;;;;;10239610;28;20203;-73
2021/07/17 15:42:48;;;;;;;14.80;9.88;;;;;;;;;;10230698;28;20225;-74
2021/07/17 15:47:51;;;;;;;17.80;13.73;;;;;;;;;;10223928;28;20212;-73
2021/07/17 15:52:54;;;;;;;13.93;9.57;;;;;;;;;;10218189;28;20248;-70
2021/07/17 15:57:58;;;;;;;15.40;10.70;;;;;;;;;;10231353;28;20640;-74
2021/07/17 16:03:00;;;;;;;16.73;10.75;;;;;;;;;;10225718;28;20613;-74
2021/07/17 16:08:04;;;;;;;17.83;11.82;;;;;;;;;;10224736;28;20367;-72
2021/07/17 16:13:08;;;;;;;17.83;12.45;;;;;;;;;;10244961;28;20226;-71
2021/07/17 16:18:11;;;;;;;19.80;13.03;;;;;;;;;;10250481;28;20300;-72
2021/07/17 16:23:14;;;;;;;19.97;13.57;;;;;;;;;;10257682;28;20319;-73
2021/07/17 16:28:19;;;;;;;17.45;12.43;;;;;;;;;;10253018;28;20292;-73
2021/07/17 16:33:21;;;;;;;17.83;12.83;;;;;;;;;;10254449;28;20223;-72
2021/07/17 16:38:24;;;;;;;18.77;13.20;;;;;;;;;;10251834;28;20291;-70
2021/07/17 16:43:28;;;;;;;18.63;12.70;;;;;;;;;;10241188;28;20216;-71
2021/07/17 16:48:30;;;;;;;19.67;12.43;;;;;;;;;;10228957;28;20199;-70
2021/07/17 16:53:33;;;;;;;19.23;12.02;;;;;;;;;;10265552;28;20571;-73
2021/07/17 16:58:37;;;;;;;18.38;12.38;;;;;;;;;;10257913;28;20192;-73
2021/07/17 17:03:39;;;;;;;20.02;12.60;;;;;;;;;;10249200;28;20212;-73
2021/07/17 17:08:42;;;;;;;18.75;12.38;;;;;;;;;;10250626;28;20320;-72
2021/07/17 17:13:45;;;;;;;17.60;12.80;;;;;;;;;;10255172;28;20234;-72
2021/07/17 17:18:48;;;;;;;17.65;12.43;;;;;;;;;;10226422;28;20200;-74
2021/07/17 17:23:51;;;;;;;15.68;11.30;;;;;;;;;;10249863;28;20242;-71
2021/07/17 17:28:54;;;;;;;16.63;11.00;;;;;;;;;;10246774;28;20209;-70
2021/07/17 17:33:57;;;;;;;17.27;11.95;;;;;;;;;;10236894;28;20217;-73
2021/07/17 17:39:00;;;;;;;15.85;11.27;;;;;;;;;;10241994;28;20199;-71
2021/07/17 17:44:04;;;;;;;16.50;11.70;;;;;;;;;;10246172;28;20231;-72
2021/07/17 17:49:07;;;;;;;15.07;11.05;;;;;;;;;;10252207;28;20238;-70
2021/07/17 17:54:10;;;;;;;23.80;18.15;;;;;;;;;;10241265;28;20213;-72
2021/07/17 17:59:14;;;;;;;16.38;11.88;;;;;;;;;;10252823;28;20188;-76
2021/07/17 18:04:19;;;;;;;17.48;11.65;;;;;;;;;;10245500;28;20667;-71
2021/07/17 18:09:25;;;;;;;17.67;11.77;;;;;;;;;;10244817;28;20942;-74
2021/07/17 18:14:29;;;;;;;18.63;11.95;;;;;;;;;;10252546;28;20224;-71
2021/07/17 18:19:31;;;;;;;20.33;12.83;;;;;;;;;;10249014;28;20250;-72
2021/07/17 18:24:34;;;;;;;18.40;12.13;;;;;;;;;;10237242;28;20276;-74
2021/07/17 18:29:38;;;;;;;19.50;13.43;;;;;;;;;;10249492;28;20227;-74
2021/07/17 18:34:41;;;;;;;18.55;12.63;;;;;;;;;;10246066;28;20335;-73
2021/07/17 18:39:43;;;;;;;18.77;13.17;;;;;;;;;;10260955;28;20872;-73
2021/07/17 18:44:47;;;;;;;19.27;12.73;;;;;;;;;;10238286;28;20228;-74
2021/07/17 18:49:52;;;;;;;19.43;12.43;;;;;;;;;;10218325;28;20219;-71
2021/07/17 18:54:54;;;;;;;21.97;14.63;;;;;;;;;;10218562;28;20209;-71
2021/07/17 18:59:58;;;;;;;25.00;18.10;;;;;;;;;;10218288;28;20201;-74
2021/07/17 19:05:00;;;;;;;19.00;13.30;;;;;;;;;;10222141;28;20217;-73
2021/07/17 19:10:04;;;;;;;19.90;13.53;;;;;;;;;;10217442;28;20219;-72
2021/07/17 19:15:08;;;;;;;19.77;13.07;;;;;;;;;;10221930;28;20315;-72
2021/07/17 19:20:12;;;;;;;22.03;15.57;;;;;;;;;;10223369;28;20224;-71
2021/07/17 19:25:15;;;;;;;21.97;14.37;;;;;;;;;;10225514;28;20257;-72
2021/07/17 19:30:20;;;;;;;24.07;15.20;;;;;;;;;;10236347;28;20216;-72
2021/07/17 19:35:23;;;;;;;23.40;15.43;;;;;;;;;;10223574;28;20577;-70
2021/07/17 19:40:25;;;;;;;25.90;16.27;;;;;;;;;;10238906;28;20572;-72
2021/07/17 19:45:29;;;;;;;24.50;16.57;;;;;;;;;;10253838;28;20290;-72
2021/07/17 19:50:32;;;;;;;33.87;24.87;;;;;;;;;;10256266;28;20219;-72
2021/07/17 19:55:35;;;;;;;19.23;13.43;;;;;;;;;;10252809;28;20223;-72
2021/07/17 20:00:39;;;;;;;22.83;16.40;;;;;;;;;;10252845;28;20686;-72
2021/07/17 20:05:41;;;;;;;19.70;13.63;;;;;;;;;;10255441;28;20219;-72
2021/07/17 20:10:44;;;;;;;22.03;15.67;;;;;;;;;;10251540;28;20213;-72
2021/07/17 20:15:47;;;;;;;21.77;15.07;;;;;;;;;;10258434;28;20569;-70
2021/07/17 20:20:51;;;;;;;36.83;27.27;;;;;;;;;;10254806;28;20208;-72
2021/07/17 20:25:53;;;;;;;19.07;13.90;;;;;;;;;;10251821;28;20280;-73
2021/07/17 20:30:57;;;;;;;19.70;12.80;;;;;;;;;;10251784;28;20749;-72
2021/07/17 20:36:00;;;;;;;32.50;24.13;;;;;;;;;;10247991;28;20219;-73
2021/07/17 20:41:02;;;;;;;20.63;13.57;;;;;;;;;;10249038;28;20263;-75
2021/07/17 20:46:07;;;;;;;18.53;12.80;;;;;;;;;;10249945;28;20204;-72
2021/07/17 20:51:10;;;;;;;20.90;13.63;;;;;;;;;;10245109;28;20657;-73
2021/07/17 20:56:12;;;;;;;21.20;14.23;;;;;;;;;;10244482;28;20193;-73
2021/07/17 21:01:16;;;;;;;21.43;14.87;;;;;;;;;;10250780;28;20220;-73
2021/07/17 21:06:19;;;;;;;19.80;13.80;;;;;;;;;;10240440;28;20226;-73
2021/07/17 21:11:22;;;;;;;45.53;34.67;;;;;;;;;;10250011;28;20235;-73
2021/07/17 21:16:25;;;;;;;22.33;15.47;;;;;;;;;;10237171;28;20298;-70
2021/07/17 21:21:30;;;;;;;26.97;16.73;;;;;;;;;;10246971;28;20288;-72
2021/07/17 21:26:33;;;;;;;19.73;14.33;;;;;;;;;;10253400;28;20255;-72
2021/07/17 21:31:37;;;;;;;21.50;14.90;;;;;;;;;;10244193;28;20291;-72
2021/07/17 21:36:39;;;;;;;23.30;15.10;;;;;;;;;;10248190;28;20201;-72
2021/07/17 21:41:42;;;;;;;33.53;22.60;;;;;;;;;;10247965;28;20208;-71
2021/07/17 21:46:45;;;;;;;26.90;16.57;;;;;;;;;;10243902;28;20262;-72
2021/07/17 21:51:48;;;;;;;21.93;15.00;;;;;;;;;;10251626;28;20227;-72
2021/07/17 21:56:51;;;;;;;24.03;15.73;;;;;;;;;;10240018;28;20259;-70
2021/07/17 22:01:54;;;;;;;23.63;14.73;;;;;;;;;;10248032;28;20354;-71
2021/07/17 22:07:00;;;;;;;22.50;15.70;;;;;;;;;;10235206;28;20676;-73
2021/07/17 22:12:03;;;;;;;23.10;14.87;;;;;;;;;;10253858;28;20238;-71
2021/07/17 22:17:28;;;;;;;21.13;14.90;;;;;;;;;;10243024;28;20211;-71
2021/07/17 22:22:51;;;;;;;22.83;15.30;;;;;;;;;;10244961;28;20208;-72
2021/07/17 22:28:14;;;;;;;25.30;15.87;;;;;;;;;;10250020;28;20200;-72
2021/07/17 22:33:18;;;;;;;25.23;15.97;;;;;;;;;;10255097;28;20216;-74
2021/07/17 22:38:21;;;;;;;27.80;16.97;;;;;;;;;;10245726;28;20204;-72
2021/07/17 22:43:25;;;;;;;24.87;16.27;;;;;;;;;;10242141;28;20695;-73
2021/07/17 22:48:29;;;;;;;28.90;16.67;;;;;;;;;;10247317;28;20402;-71
2021/07/17 22:53:32;;;;;;;25.40;16.90;;;;;;;;;;10249363;28;20699;-73
2021/07/17 22:58:34;;;;;;;28.33;18.43;;;;;;;;;;10249773;28;20727;-71
2021/07/17 23:03:38;;;;;;;28.57;17.80;;;;;;;;;;10246957;28;20216;-72
2021/07/17 23:08:41;;;;;;;28.27;19.17;;;;;;;;;;10238254;28;20276;-74
2021/07/17 23:13:43;;;;;;;30.40;18.83;;;;;;;;;;10254533;28;20223;-73
2021/07/17 23:18:47;;;;;;;29.83;18.90;;;;;;;;;;10238524;28;20247;-73
2021/07/17 23:23:50;;;;;;;31.07;19.73;;;;;;;;;;10246303;28;20212;-73
2021/07/17 23:28:52;;;;;;;30.20;19.80;;;;;;;;;;10250543;28;20537;-72
2021/07/17 23:33:56;;;;;;;30.43;19.03;;;;;;;;;;10244670;28;20216;-70
2021/07/17 23:38:59;;;;;;;31.03;20.57;;;;;;;;;;10238963;28;20765;-71
2021/07/17 23:44:01;;;;;;;31.70;20.30;;;;;;;;;;10241749;28;20555;-72
2021/07/17 23:49:05;;;;;;;34.73;20.30;;;;;;;;;;10245847;28;20199;-72
2021/07/17 23:54:08;;;;;;;33.07;21.17;;;;;;;;;;10238692;28;20617;-71
2021/07/17 23:59:11;;;;;;;35.27;21.50;;;;;;;;;;10226580;28;20235;-71
